sensor_id;sensor_type;location;lat;lon;timestamp;P1;durP1;ratioP1;P2;durP2;ratioP2
75932;SDS011;64803;52.356;5.310;2022-11-15T00:01:53;54.92;;;20.40;;
75932;SDS011;64803;52.356;5.310;2022-11-15T00:04:37;62.13;;;20.98;;
75932;SDS011;64803;52.356;5.310;2022-11-15T00:07:22;50.90;;;18.95;;
75932;SDS011;64803;52.356;5.310;2022-11-15T00:10:06;67.80;;;23.23;;
75932;SDS011;64803;52.356;5.310;2022-11-15T00:12:51;61.85;;;20.55;;
75932;SDS011;64803;52.356;5.310;2022-11-15T00:15:36;56.65;;;20.13;;
75932;SDS011;64803;52.356;5.310;2022-11-15T00:18:21;58.05;;;19.58;;
75932;SDS011;64803;52.356;5.310;2022-11-15T00:21:07;56.38;;;20.08;;
75932;SDS011;64803;52.356;5.310;2022-11-15T00:23:54;63.63;;;22.70;;
75932;SDS011;64803;52.356;5.310;2022-11-15T00:26:39;60.53;;;20.38;;
75932;SDS011;64803;52.356;5.310;2022-11-15T00:29:23;57.55;;;18.92;;
75932;SDS011;64803;52.356;5.310;2022-11-15T00:32:11;59.17;;;19.65;;
75932;SDS011;64803;52.356;5.310;2022-11-15T00:34:56;64.03;;;20.75;;
75932;SDS011;64803;52.356;5.310;2022-11-15T00:37:40;70.47;;;21.10;;
75932;SDS011;64803;52.356;5.310;2022-11-15T00:40:25;64.32;;;21.73;;
75932;SDS011;64803;52.356;5.310;2022-11-15T00:43:09;57.88;;;20.40;;
75932;SDS011;64803;52.356;5.310;2022-11-15T00:45:53;52.38;;;18.40;;
75932;SDS011;64803;52.356;5.310;2022-11-15T00:48:38;64.38;;;19.52;;
75932;SDS011;64803;52.356;5.310;2022-11-15T00:51:22;62.78;;;20.45;;
75932;SDS011;64803;52.356;5.310;2022-11-15T00:54:07;72.20;;;20.20;;
75932;SDS011;64803;52.356;5.310;2022-11-15T00:56:51;56.45;;;19.20;;
75932;SDS011;64803;52.356;5.310;2022-11-15T00:59:36;64.05;;;21.35;;
75932;SDS011;64803;52.356;5.310;2022-11-15T01:02:20;63.00;;;20.00;;
75932;SDS011;64803;52.356;5.310;2022-11-15T01:05:05;64.72;;;20.98;;
75932;SDS011;64803;52.356;5.310;2022-11-15T01:07:54;65.18;;;21.33;;
75932;SDS011;64803;52.356;5.310;2022-11-15T01:10:39;69.35;;;20.83;;
75932;SDS011;64803;52.356;5.310;2022-11-15T01:13:24;59.95;;;20.30;;
75932;SDS011;64803;52.356;5.310;2022-11-15T01:16:13;88.40;;;23.88;;
75932;SDS011;64803;52.356;5.310;2022-11-15T01:18:59;77.03;;;22.17;;
75932;SDS011;64803;52.356;5.310;2022-11-15T01:21:44;89.80;;;22.90;;
75932;SDS011;64803;52.356;5.310;2022-11-15T01:24:28;80.53;;;21.42;;
75932;SDS011;64803;52.356;5.310;2022-11-15T01:27:13;82.70;;;22.45;;
75932;SDS011;64803;52.356;5.310;2022-11-15T01:29:57;78.85;;;20.75;;
75932;SDS011;64803;52.356;5.310;2022-11-15T01:32:42;92.20;;;22.85;;
75932;SDS011;64803;52.356;5.310;2022-11-15T01:35:26;84.97;;;22.60;;
75932;SDS011;64803;52.356;5.310;2022-11-15T01:38:11;108.15;;;24.67;;
75932;SDS011;64803;52.356;5.310;2022-11-15T01:40:56;105.22;;;25.13;;
75932;SDS011;64803;52.356;5.310;2022-11-15T01:43:40;83.95;;;23.60;;
75932;SDS011;64803;52.356;5.310;2022-11-15T01:46:27;104.50;;;25.58;;
75932;SDS011;64803;52.356;5.310;2022-11-15T01:49:16;99.55;;;25.40;;
75932;SDS011;64803;52.356;5.310;2022-11-15T01:52:04;103.13;;;24.90;;
75932;SDS011;64803;52.356;5.310;2022-11-15T01:57:57;90.13;;;20.30;;
75932;SDS011;64803;52.356;5.310;2022-11-15T02:00:43;92.85;;;23.00;;
75932;SDS011;64803;52.356;5.310;2022-11-15T02:03:34;106.38;;;24.75;;
75932;SDS011;64803;52.356;5.310;2022-11-15T02:06:24;101.43;;;25.15;;
75932;SDS011;64803;52.356;5.310;2022-11-15T02:09:10;92.28;;;25.38;;
75932;SDS011;64803;52.356;5.310;2022-11-15T02:11:56;103.93;;;25.13;;
75932;SDS011;64803;52.356;5.310;2022-11-15T02:14:42;106.85;;;23.77;;
75932;SDS011;64803;52.356;5.310;2022-11-15T02:26:48;87.82;;;24.50;;
75932;SDS011;64803;52.356;5.310;2022-11-15T02:29:47;95.35;;;25.48;;
75932;SDS011;64803;52.356;5.310;2022-11-15T02:32:57;93.50;;;24.38;;
75932;SDS011;64803;52.356;5.310;2022-11-15T02:36:02;85.68;;;24.42;;
75932;SDS011;64803;52.356;5.310;2022-11-15T02:38:56;90.95;;;25.73;;
75932;SDS011;64803;52.356;5.310;2022-11-15T02:41:52;96.45;;;24.58;;
75932;SDS011;64803;52.356;5.310;2022-11-15T02:45:17;93.47;;;27.08;;
75932;SDS011;64803;52.356;5.310;2022-11-15T02:48:08;101.53;;;26.35;;
75932;SDS011;64803;52.356;5.310;2022-11-15T02:50:54;95.60;;;26.27;;
75932;SDS011;64803;52.356;5.310;2022-11-15T02:53:39;76.78;;;23.15;;
75932;SDS011;64803;52.356;5.310;2022-11-15T02:56:23;91.38;;;26.45;;
75932;SDS011;64803;52.356;5.310;2022-11-15T03:02:15;104.18;;;26.88;;
75932;SDS011;64803;52.356;5.310;2022-11-15T03:08:31;101.88;;;26.77;;
75932;SDS011;64803;52.356;5.310;2022-11-15T03:11:21;109.90;;;28.13;;
75932;SDS011;64803;52.356;5.310;2022-11-15T03:20:07;92.00;;;26.13;;
75932;SDS011;64803;52.356;5.310;2022-11-15T03:22:58;83.78;;;25.15;;
75932;SDS011;64803;52.356;5.310;2022-11-15T03:25:48;83.85;;;26.27;;
75932;SDS011;64803;52.356;5.310;2022-11-15T03:28:40;84.88;;;25.50;;
75932;SDS011;64803;52.356;5.310;2022-11-15T03:31:31;92.07;;;26.88;;
75932;SDS011;64803;52.356;5.310;2022-11-15T03:34:32;91.22;;;26.95;;
75932;SDS011;64803;52.356;5.310;2022-11-15T03:37:25;67.43;;;21.65;;
75932;SDS011;64803;52.356;5.310;2022-11-15T03:40:18;99.40;;;28.67;;
75932;SDS011;64803;52.356;5.310;2022-11-15T03:43:24;107.90;;;28.25;;
75932;SDS011;64803;52.356;5.310;2022-11-15T03:46:56;109.47;;;29.98;;
75932;SDS011;64803;52.356;5.310;2022-11-15T03:49:27;91.05;;;29.13;;
75932;SDS011;64803;52.356;5.310;2022-11-15T03:52:17;98.47;;;28.60;;
75932;SDS011;64803;52.356;5.310;2022-11-15T03:55:04;112.28;;;30.05;;
75932;SDS011;64803;52.356;5.310;2022-11-15T03:57:51;107.32;;;29.17;;
75932;SDS011;64803;52.356;5.310;2022-11-15T04:00:40;133.15;;;33.08;;
75932;SDS011;64803;52.356;5.310;2022-11-15T04:03:25;112.13;;;30.70;;
75932;SDS011;64803;52.356;5.310;2022-11-15T04:06:09;100.75;;;28.45;;
75932;SDS011;64803;52.356;5.310;2022-11-15T04:08:54;100.60;;;28.25;;
75932;SDS011;64803;52.356;5.310;2022-11-15T04:11:38;131.52;;;34.25;;
75932;SDS011;64803;52.356;5.310;2022-11-15T04:14:23;98.25;;;28.58;;
75932;SDS011;64803;52.356;5.310;2022-11-15T04:17:07;100.57;;;29.00;;
75932;SDS011;64803;52.356;5.310;2022-11-15T04:19:52;119.38;;;29.63;;
75932;SDS011;64803;52.356;5.310;2022-11-15T04:23:16;106.47;;;29.00;;
75932;SDS011;64803;52.356;5.310;2022-11-15T04:26:21;103.07;;;28.60;;
75932;SDS011;64803;52.356;5.310;2022-11-15T04:29:07;99.60;;;30.48;;
75932;SDS011;64803;52.356;5.310;2022-11-15T04:32:10;88.45;;;26.17;;
75932;SDS011;64803;52.356;5.310;2022-11-15T04:34:55;102.07;;;29.77;;
75932;SDS011;64803;52.356;5.310;2022-11-15T04:37:39;88.68;;;29.85;;
75932;SDS011;64803;52.356;5.310;2022-11-15T04:40:24;73.85;;;24.95;;
75932;SDS011;64803;52.356;5.310;2022-11-15T04:43:08;90.30;;;29.02;;
75932;SDS011;64803;52.356;5.310;2022-11-15T04:45:56;93.95;;;29.15;;
75932;SDS011;64803;52.356;5.310;2022-11-15T04:48:40;84.53;;;28.80;;
75932;SDS011;64803;52.356;5.310;2022-11-15T04:51:25;71.40;;;24.88;;
75932;SDS011;64803;52.356;5.310;2022-11-15T04:54:10;77.35;;;25.58;;
75932;SDS011;64803;52.356;5.310;2022-11-15T04:56:55;76.10;;;25.60;;
75932;SDS011;64803;52.356;5.310;2022-11-15T04:59:39;76.55;;;26.83;;
75932;SDS011;64803;52.356;5.310;2022-11-15T05:02:24;83.80;;;26.92;;
75932;SDS011;64803;52.356;5.310;2022-11-15T05:05:28;80.70;;;26.63;;
75932;SDS011;64803;52.356;5.310;2022-11-15T05:08:13;70.25;;;25.35;;
75932;SDS011;64803;52.356;5.310;2022-11-15T05:10:58;71.35;;;26.42;;
75932;SDS011;64803;52.356;5.310;2022-11-15T05:13:42;61.03;;;22.60;;
75932;SDS011;64803;52.356;5.310;2022-11-15T05:16:27;62.92;;;24.17;;
75932;SDS011;64803;52.356;5.310;2022-11-15T05:19:11;64.47;;;25.02;;
75932;SDS011;64803;52.356;5.310;2022-11-15T05:21:56;62.53;;;23.10;;
75932;SDS011;64803;52.356;5.310;2022-11-15T05:24:40;64.97;;;22.38;;
75932;SDS011;64803;52.356;5.310;2022-11-15T05:27:25;66.40;;;22.92;;
75932;SDS011;64803;52.356;5.310;2022-11-15T05:30:09;67.65;;;24.15;;
75932;SDS011;64803;52.356;5.310;2022-11-15T05:32:54;60.40;;;24.05;;
75932;SDS011;64803;52.356;5.310;2022-11-15T05:35:40;59.20;;;23.05;;
75932;SDS011;64803;52.356;5.310;2022-11-15T05:38:30;62.83;;;22.83;;
75932;SDS011;64803;52.356;5.310;2022-11-15T05:41:15;51.60;;;20.92;;
75932;SDS011;64803;52.356;5.310;2022-11-15T05:44:03;57.38;;;22.52;;
75932;SDS011;64803;52.356;5.310;2022-11-15T05:46:51;54.30;;;21.45;;
75932;SDS011;64803;52.356;5.310;2022-11-15T05:49:38;51.60;;;20.48;;
75932;SDS011;64803;52.356;5.310;2022-11-15T05:52:28;64.65;;;22.50;;
75932;SDS011;64803;52.356;5.310;2022-11-15T05:55:18;53.42;;;22.55;;
75932;SDS011;64803;52.356;5.310;2022-11-15T05:58:02;44.90;;;20.65;;
75932;SDS011;64803;52.356;5.310;2022-11-15T06:00:47;47.28;;;20.08;;
75932;SDS011;64803;52.356;5.310;2022-11-15T06:03:32;49.42;;;19.48;;
75932;SDS011;64803;52.356;5.310;2022-11-15T06:06:16;48.60;;;19.80;;
75932;SDS011;64803;52.356;5.310;2022-11-15T06:09:01;48.80;;;18.75;;
75932;SDS011;64803;52.356;5.310;2022-11-15T06:11:46;49.90;;;20.67;;
75932;SDS011;64803;52.356;5.310;2022-11-15T06:14:30;56.08;;;20.77;;
75932;SDS011;64803;52.356;5.310;2022-11-15T06:17:15;48.28;;;19.80;;
75932;SDS011;64803;52.356;5.310;2022-11-15T06:19:59;51.72;;;18.90;;
75932;SDS011;64803;52.356;5.310;2022-11-15T06:22:44;45.15;;;18.27;;
75932;SDS011;64803;52.356;5.310;2022-11-15T06:25:29;40.63;;;17.98;;
75932;SDS011;64803;52.356;5.310;2022-11-15T06:28:14;49.45;;;19.85;;
75932;SDS011;64803;52.356;5.310;2022-11-15T06:31:06;41.60;;;18.17;;
75932;SDS011;64803;52.356;5.310;2022-11-15T06:33:52;42.55;;;18.33;;
75932;SDS011;64803;52.356;5.310;2022-11-15T06:36:37;48.33;;;18.10;;
75932;SDS011;64803;52.356;5.310;2022-11-15T06:39:21;44.60;;;17.60;;
75932;SDS011;64803;52.356;5.310;2022-11-15T06:42:07;39.83;;;17.38;;
75932;SDS011;64803;52.356;5.310;2022-11-15T06:44:52;44.25;;;16.77;;
75932;SDS011;64803;52.356;5.310;2022-11-15T06:47:44;41.08;;;17.95;;
75932;SDS011;64803;52.356;5.310;2022-11-15T06:50:30;45.92;;;19.25;;
75932;SDS011;64803;52.356;5.310;2022-11-15T06:53:15;40.65;;;18.10;;
75932;SDS011;64803;52.356;5.310;2022-11-15T06:56:03;43.00;;;20.02;;
75932;SDS011;64803;52.356;5.310;2022-11-15T06:58:49;45.78;;;19.38;;
75932;SDS011;64803;52.356;5.310;2022-11-15T07:01:33;45.55;;;18.55;;
75932;SDS011;64803;52.356;5.310;2022-11-15T07:04:18;41.45;;;17.77;;
75932;SDS011;64803;52.356;5.310;2022-11-15T07:07:02;48.75;;;19.70;;
75932;SDS011;64803;52.356;5.310;2022-11-15T07:09:47;42.55;;;17.95;;
75932;SDS011;64803;52.356;5.310;2022-11-15T07:12:31;44.80;;;19.00;;
75932;SDS011;64803;52.356;5.310;2022-11-15T07:15:16;46.97;;;19.25;;
75932;SDS011;64803;52.356;5.310;2022-11-15T07:18:02;43.45;;;18.55;;
75932;SDS011;64803;52.356;5.310;2022-11-15T07:20:46;46.97;;;19.38;;
75932;SDS011;64803;52.356;5.310;2022-11-15T07:23:31;50.28;;;19.80;;
75932;SDS011;64803;52.356;5.310;2022-11-15T07:26:16;51.78;;;19.65;;
75932;SDS011;64803;52.356;5.310;2022-11-15T07:29:01;49.65;;;19.65;;
75932;SDS011;64803;52.356;5.310;2022-11-15T07:31:46;49.30;;;21.27;;
75932;SDS011;64803;52.356;5.310;2022-11-15T07:34:30;48.15;;;19.40;;
75932;SDS011;64803;52.356;5.310;2022-11-15T07:37:15;48.78;;;20.55;;
75932;SDS011;64803;52.356;5.310;2022-11-15T07:40:01;44.78;;;18.88;;
75932;SDS011;64803;52.356;5.310;2022-11-15T07:42:45;43.45;;;20.30;;
75932;SDS011;64803;52.356;5.310;2022-11-15T07:45:40;42.30;;;19.27;;
75932;SDS011;64803;52.356;5.310;2022-11-15T07:48:27;48.80;;;20.52;;
75932;SDS011;64803;52.356;5.310;2022-11-15T07:51:15;43.30;;;18.20;;
75932;SDS011;64803;52.356;5.310;2022-11-15T07:54:00;43.45;;;18.10;;
75932;SDS011;64803;52.356;5.310;2022-11-15T07:56:45;44.85;;;18.92;;
75932;SDS011;64803;52.356;5.310;2022-11-15T07:59:29;47.92;;;18.48;;
75932;SDS011;64803;52.356;5.310;2022-11-15T08:05:01;44.67;;;17.88;;
75932;SDS011;64803;52.356;5.310;2022-11-15T08:07:46;48.00;;;18.35;;
75932;SDS011;64803;52.356;5.310;2022-11-15T08:10:30;42.47;;;17.27;;
75932;SDS011;64803;52.356;5.310;2022-11-15T08:13:16;41.85;;;18.40;;
75932;SDS011;64803;52.356;5.310;2022-11-15T08:16:01;43.70;;;18.48;;
75932;SDS011;64803;52.356;5.310;2022-11-15T08:18:47;40.92;;;17.38;;
75932;SDS011;64803;52.356;5.310;2022-11-15T08:21:31;35.17;;;15.80;;
75932;SDS011;64803;52.356;5.310;2022-11-15T08:24:16;38.13;;;16.83;;
75932;SDS011;64803;52.356;5.310;2022-11-15T08:27:00;38.60;;;16.63;;
75932;SDS011;64803;52.356;5.310;2022-11-15T08:29:45;42.85;;;17.10;;
75932;SDS011;64803;52.356;5.310;2022-11-15T08:35:15;39.47;;;16.10;;
75932;SDS011;64803;52.356;5.310;2022-11-15T08:38:00;36.70;;;15.48;;
75932;SDS011;64803;52.356;5.310;2022-11-15T08:40:44;45.28;;;15.25;;
75932;SDS011;64803;52.356;5.310;2022-11-15T08:43:29;35.38;;;14.63;;
75932;SDS011;64803;52.356;5.310;2022-11-15T08:46:13;38.22;;;14.80;;
75932;SDS011;64803;52.356;5.310;2022-11-15T08:48:58;34.45;;;15.73;;
75932;SDS011;64803;52.356;5.310;2022-11-15T08:51:42;32.08;;;12.20;;
75932;SDS011;64803;52.356;5.310;2022-11-15T08:54:27;28.80;;;13.52;;
75932;SDS011;64803;52.356;5.310;2022-11-15T08:57:11;38.90;;;14.90;;
75932;SDS011;64803;52.356;5.310;2022-11-15T08:59:56;29.35;;;13.23;;
75932;SDS011;64803;52.356;5.310;2022-11-15T09:02:41;29.33;;;13.68;;
75932;SDS011;64803;52.356;5.310;2022-11-15T09:05:25;31.35;;;12.80;;
75932;SDS011;64803;52.356;5.310;2022-11-15T09:10:56;33.63;;;13.20;;
75932;SDS011;64803;52.356;5.310;2022-11-15T09:13:41;27.17;;;12.27;;
75932;SDS011;64803;52.356;5.310;2022-11-15T09:16:26;30.48;;;12.15;;
75932;SDS011;64803;52.356;5.310;2022-11-15T09:19:11;24.10;;;10.77;;
75932;SDS011;64803;52.356;5.310;2022-11-15T09:21:56;27.95;;;11.23;;
75932;SDS011;64803;52.356;5.310;2022-11-15T09:24:40;24.85;;;12.15;;
75932;SDS011;64803;52.356;5.310;2022-11-15T09:27:28;30.73;;;12.63;;
75932;SDS011;64803;52.356;5.310;2022-11-15T09:30:14;26.42;;;10.93;;
75932;SDS011;64803;52.356;5.310;2022-11-15T09:33:05;25.33;;;9.95;;
75932;SDS011;64803;52.356;5.310;2022-11-15T09:35:50;22.70;;;10.45;;
75932;SDS011;64803;52.356;5.310;2022-11-15T09:38:35;21.58;;;9.32;;
75932;SDS011;64803;52.356;5.310;2022-11-15T09:41:28;21.30;;;9.25;;
75932;SDS011;64803;52.356;5.310;2022-11-15T09:44:46;22.67;;;9.68;;
75932;SDS011;64803;52.356;5.310;2022-11-15T09:47:49;27.17;;;9.90;;
75932;SDS011;64803;52.356;5.310;2022-11-15T09:50:48;19.63;;;7.93;;
75932;SDS011;64803;52.356;5.310;2022-11-15T09:56:16;17.90;;;9.63;;
75932;SDS011;64803;52.356;5.310;2022-11-15T10:07:13;19.50;;;8.10;;
75932;SDS011;64803;52.356;5.310;2022-11-15T10:09:47;12.18;;;5.53;;
75932;SDS011;64803;52.356;5.310;2022-11-15T10:12:17;12.60;;;6.30;;
75932;SDS011;64803;52.356;5.310;2022-11-15T10:14:44;15.50;;;6.30;;
75932;SDS011;64803;52.356;5.310;2022-11-15T10:17:37;15.40;;;6.28;;
75932;SDS011;64803;52.356;5.310;2022-11-15T10:20:29;13.52;;;5.78;;
75932;SDS011;64803;52.356;5.310;2022-11-15T10:23:04;16.10;;;5.97;;
75932;SDS011;64803;52.356;5.310;2022-11-15T10:25:33;12.10;;;4.95;;
75932;SDS011;64803;52.356;5.310;2022-11-15T10:30:45;12.60;;;4.72;;
75932;SDS011;64803;52.356;5.310;2022-11-15T10:41:18;12.65;;;4.45;;
75932;SDS011;64803;52.356;5.310;2022-11-15T10:49:25;12.73;;;3.47;;
75932;SDS011;64803;52.356;5.310;2022-11-15T10:52:03;7.95;;;3.65;;
75932;SDS011;64803;52.356;5.310;2022-11-15T10:54:41;10.88;;;4.68;;
75932;SDS011;64803;52.356;5.310;2022-11-15T10:57:21;10.13;;;4.80;;
75932;SDS011;64803;52.356;5.310;2022-11-15T10:59:53;10.80;;;3.83;;
75932;SDS011;64803;52.356;5.310;2022-11-15T11:02:29;10.35;;;4.22;;
75932;SDS011;64803;52.356;5.310;2022-11-15T11:04:55;8.20;;;3.42;;
75932;SDS011;64803;52.356;5.310;2022-11-15T11:07:31;11.98;;;3.95;;
75932;SDS011;64803;52.356;5.310;2022-11-15T11:10:16;13.48;;;3.58;;
75932;SDS011;64803;52.356;5.310;2022-11-15T11:12:45;7.95;;;3.40;;
75932;SDS011;64803;52.356;5.310;2022-11-15T11:15:12;8.77;;;3.50;;
75932;SDS011;64803;52.356;5.310;2022-11-15T11:20:33;9.05;;;3.00;;
75932;SDS011;64803;52.356;5.310;2022-11-15T11:25:43;7.80;;;3.22;;
75932;SDS011;64803;52.356;5.310;2022-11-15T11:28:41;8.10;;;3.30;;
75932;SDS011;64803;52.356;5.310;2022-11-15T11:34:14;9.57;;;2.70;;
75932;SDS011;64803;52.356;5.310;2022-11-15T11:37:00;11.68;;;3.95;;
75932;SDS011;64803;52.356;5.310;2022-11-15T11:44:58;8.82;;;2.50;;
75932;SDS011;64803;52.356;5.310;2022-11-15T11:47:47;7.13;;;2.20;;
75932;SDS011;64803;52.356;5.310;2022-11-15T11:50:23;8.15;;;2.38;;
75932;SDS011;64803;52.356;5.310;2022-11-15T11:55:34;8.48;;;2.50;;
75932;SDS011;64803;52.356;5.310;2022-11-15T12:00:55;7.25;;;2.30;;
75932;SDS011;64803;52.356;5.310;2022-11-15T12:03:43;7.47;;;2.35;;
75932;SDS011;64803;52.356;5.310;2022-11-15T12:06:30;7.97;;;2.85;;
75932;SDS011;64803;52.356;5.310;2022-11-15T12:09:15;7.50;;;2.45;;
75932;SDS011;64803;52.356;5.310;2022-11-15T12:17:21;13.27;;;2.38;;
75932;SDS011;64803;52.356;5.310;2022-11-15T12:19:49;6.28;;;2.25;;
75932;SDS011;64803;52.356;5.310;2022-11-15T12:22:36;9.50;;;2.20;;
75932;SDS011;64803;52.356;5.310;2022-11-15T12:25:13;10.45;;;2.22;;
75932;SDS011;64803;52.356;5.310;2022-11-15T12:27:45;10.35;;;2.47;;
75932;SDS011;64803;52.356;5.310;2022-11-15T12:30:40;7.00;;;1.85;;
75932;SDS011;64803;52.356;5.310;2022-11-15T12:38:53;5.10;;;1.85;;
75932;SDS011;64803;52.356;5.310;2022-11-15T12:41:27;8.88;;;2.15;;
75932;SDS011;64803;52.356;5.310;2022-11-15T12:43:57;8.00;;;1.90;;
75932;SDS011;64803;52.356;5.310;2022-11-15T12:49:00;7.35;;;1.77;;
75932;SDS011;64803;52.356;5.310;2022-11-15T13:07:55;6.55;;;1.42;;
75932;SDS011;64803;52.356;5.310;2022-11-15T13:12:54;9.30;;;1.48;;
75932;SDS011;64803;52.356;5.310;2022-11-15T13:15:35;5.70;;;1.50;;
75932;SDS011;64803;52.356;5.310;2022-11-15T13:18:39;6.30;;;1.50;;
75932;SDS011;64803;52.356;5.310;2022-11-15T13:21:02;10.25;;;1.38;;
75932;SDS011;64803;52.356;5.310;2022-11-15T13:23:53;3.95;;;1.00;;
75932;SDS011;64803;52.356;5.310;2022-11-15T13:26:20;5.80;;;1.48;;
75932;SDS011;64803;52.356;5.310;2022-11-15T13:28:48;7.38;;;0.98;;
75932;SDS011;64803;52.356;5.310;2022-11-15T13:33:56;4.15;;;1.10;;
75932;SDS011;64803;52.356;5.310;2022-11-15T13:36:26;5.78;;;1.30;;
75932;SDS011;64803;52.356;5.310;2022-11-15T13:38:56;4.43;;;1.30;;
75932;SDS011;64803;52.356;5.310;2022-11-15T13:41:30;6.65;;;1.33;;
75932;SDS011;64803;52.356;5.310;2022-11-15T13:44:00;7.78;;;1.63;;
75932;SDS011;64803;52.356;5.310;2022-11-15T13:46:28;7.15;;;1.70;;
75932;SDS011;64803;52.356;5.310;2022-11-15T13:48:59;6.00;;;1.50;;
75932;SDS011;64803;52.356;5.310;2022-11-15T13:51:49;6.60;;;1.42;;
75932;SDS011;64803;52.356;5.310;2022-11-15T13:56:56;4.70;;;1.38;;
75932;SDS011;64803;52.356;5.310;2022-11-15T14:01:56;5.60;;;2.40;;
75932;SDS011;64803;52.356;5.310;2022-11-15T14:04:27;10.73;;;1.73;;
75932;SDS011;64803;52.356;5.310;2022-11-15T14:06:59;8.13;;;1.85;;
75932;SDS011;64803;52.356;5.310;2022-11-15T14:09:39;7.03;;;1.73;;
75932;SDS011;64803;52.356;5.310;2022-11-15T14:12:26;7.68;;;1.80;;
75932;SDS011;64803;52.356;5.310;2022-11-15T14:15:01;7.65;;;1.73;;
75932;SDS011;64803;52.356;5.310;2022-11-15T14:17:44;8.50;;;2.00;;
75932;SDS011;64803;52.356;5.310;2022-11-15T14:20:20;5.07;;;1.70;;
75932;SDS011;64803;52.356;5.310;2022-11-15T14:22:52;5.90;;;1.70;;
75932;SDS011;64803;52.356;5.310;2022-11-15T14:25:22;5.13;;;1.58;;
75932;SDS011;64803;52.356;5.310;2022-11-15T14:30:41;7.15;;;1.70;;
75932;SDS011;64803;52.356;5.310;2022-11-15T14:33:17;7.85;;;1.65;;
75932;SDS011;64803;52.356;5.310;2022-11-15T14:35:45;5.78;;;1.13;;
75932;SDS011;64803;52.356;5.310;2022-11-15T14:38:11;11.55;;;1.90;;
75932;SDS011;64803;52.356;5.310;2022-11-15T14:40:37;4.70;;;1.45;;
75932;SDS011;64803;52.356;5.310;2022-11-15T14:43:03;5.75;;;1.17;;
75932;SDS011;64803;52.356;5.310;2022-11-15T14:45:29;6.13;;;1.50;;
75932;SDS011;64803;52.356;5.310;2022-11-15T14:47:55;4.47;;;1.30;;
75932;SDS011;64803;52.356;5.310;2022-11-15T14:50:21;6.22;;;1.50;;
75932;SDS011;64803;52.356;5.310;2022-11-15T14:52:47;5.43;;;1.60;;
75932;SDS011;64803;52.356;5.310;2022-11-15T14:55:22;7.15;;;1.25;;
75932;SDS011;64803;52.356;5.310;2022-11-15T14:57:50;9.23;;;1.85;;
75932;SDS011;64803;52.356;5.310;2022-11-15T15:00:16;5.20;;;1.40;;
75932;SDS011;64803;52.356;5.310;2022-11-15T15:02:43;5.65;;;1.30;;
75932;SDS011;64803;52.356;5.310;2022-11-15T15:05:13;7.32;;;1.33;;
75932;SDS011;64803;52.356;5.310;2022-11-15T15:07:48;3.38;;;1.15;;
75932;SDS011;64803;52.356;5.310;2022-11-15T15:10:16;7.82;;;1.27;;
75932;SDS011;64803;52.356;5.310;2022-11-15T15:12:42;5.43;;;1.45;;
75932;SDS011;64803;52.356;5.310;2022-11-15T15:15:13;6.78;;;1.30;;
75932;SDS011;64803;52.356;5.310;2022-11-15T15:17:50;9.95;;;1.55;;
75932;SDS011;64803;52.356;5.310;2022-11-15T15:20:16;6.00;;;1.20;;
75932;SDS011;64803;52.356;5.310;2022-11-15T15:22:42;5.88;;;1.17;;
75932;SDS011;64803;52.356;5.310;2022-11-15T15:25:28;5.65;;;1.40;;
75932;SDS011;64803;52.356;5.310;2022-11-15T15:27:58;5.03;;;1.17;;
75932;SDS011;64803;52.356;5.310;2022-11-15T15:30:25;5.85;;;0.90;;
75932;SDS011;64803;52.356;5.310;2022-11-15T15:32:52;3.90;;;0.82;;
75932;SDS011;64803;52.356;5.310;2022-11-15T15:35:19;7.90;;;1.52;;
75932;SDS011;64803;52.356;5.310;2022-11-15T15:37:46;3.83;;;1.00;;
75932;SDS011;64803;52.356;5.310;2022-11-15T15:42:43;5.60;;;1.13;;
75932;SDS011;64803;52.356;5.310;2022-11-15T15:45:10;6.30;;;1.10;;
75932;SDS011;64803;52.356;5.310;2022-11-15T15:47:36;3.88;;;1.00;;
75932;SDS011;64803;52.356;5.310;2022-11-15T15:50:03;3.25;;;1.10;;
75932;SDS011;64803;52.356;5.310;2022-11-15T15:52:37;7.97;;;1.17;;
75932;SDS011;64803;52.356;5.310;2022-11-15T15:55:03;5.00;;;1.33;;
75932;SDS011;64803;52.356;5.310;2022-11-15T15:57:29;6.20;;;1.45;;
75932;SDS011;64803;52.356;5.310;2022-11-15T15:59:55;9.40;;;2.13;;
75932;SDS011;64803;52.356;5.310;2022-11-15T16:02:21;5.63;;;1.33;;
75932;SDS011;64803;52.356;5.310;2022-11-15T16:04:47;5.65;;;1.20;;
75932;SDS011;64803;52.356;5.310;2022-11-15T16:07:16;5.38;;;1.27;;
75932;SDS011;64803;52.356;5.310;2022-11-15T16:09:46;4.10;;;1.15;;
75932;SDS011;64803;52.356;5.310;2022-11-15T16:12:27;4.20;;;1.17;;
75932;SDS011;64803;52.356;5.310;2022-11-15T16:14:58;8.18;;;1.35;;
75932;SDS011;64803;52.356;5.310;2022-11-15T16:17:25;5.35;;;1.40;;
75932;SDS011;64803;52.356;5.310;2022-11-15T16:19:54;3.20;;;1.30;;
75932;SDS011;64803;52.356;5.310;2022-11-15T16:22:20;7.35;;;1.33;;
75932;SDS011;64803;52.356;5.310;2022-11-15T16:24:46;5.72;;;1.27;;
75932;SDS011;64803;52.356;5.310;2022-11-15T16:27:13;5.72;;;1.75;;
75932;SDS011;64803;52.356;5.310;2022-11-15T16:29:44;8.63;;;1.20;;
75932;SDS011;64803;52.356;5.310;2022-11-15T16:32:11;6.13;;;1.00;;
75932;SDS011;64803;52.356;5.310;2022-11-15T16:34:37;6.38;;;1.05;;
75932;SDS011;64803;52.356;5.310;2022-11-15T16:37:03;3.72;;;0.73;;
75932;SDS011;64803;52.356;5.310;2022-11-15T16:39:30;3.70;;;1.15;;
75932;SDS011;64803;52.356;5.310;2022-11-15T16:41:59;3.63;;;1.08;;
75932;SDS011;64803;52.356;5.310;2022-11-15T16:44:25;4.78;;;1.08;;
75932;SDS011;64803;52.356;5.310;2022-11-15T16:46:51;4.32;;;1.10;;
75932;SDS011;64803;52.356;5.310;2022-11-15T16:49:18;6.53;;;1.30;;
75932;SDS011;64803;52.356;5.310;2022-11-15T16:51:45;6.43;;;1.50;;
75932;SDS011;64803;52.356;5.310;2022-11-15T16:54:13;3.08;;;0.90;;
75932;SDS011;64803;52.356;5.310;2022-11-15T16:56:40;10.52;;;1.50;;
75932;SDS011;64803;52.356;5.310;2022-11-15T16:59:06;4.30;;;0.90;;
75932;SDS011;64803;52.356;5.310;2022-11-15T17:01:39;4.03;;;1.20;;
75932;SDS011;64803;52.356;5.310;2022-11-15T17:04:11;4.88;;;1.02;;
75932;SDS011;64803;52.356;5.310;2022-11-15T17:06:38;5.05;;;1.60;;
75932;SDS011;64803;52.356;5.310;2022-11-15T17:09:05;4.03;;;1.10;;
75932;SDS011;64803;52.356;5.310;2022-11-15T17:11:31;5.63;;;1.20;;
75932;SDS011;64803;52.356;5.310;2022-11-15T17:13:58;5.82;;;1.60;;
75932;SDS011;64803;52.356;5.310;2022-11-15T17:16:24;5.97;;;1.33;;
75932;SDS011;64803;52.356;5.310;2022-11-15T17:18:51;5.38;;;1.40;;
75932;SDS011;64803;52.356;5.310;2022-11-15T17:21:19;7.15;;;1.60;;
75932;SDS011;64803;52.356;5.310;2022-11-15T17:23:46;6.80;;;1.50;;
75932;SDS011;64803;52.356;5.310;2022-11-15T17:26:13;6.22;;;1.75;;
75932;SDS011;64803;52.356;5.310;2022-11-15T17:28:40;4.95;;;1.60;;
75932;SDS011;64803;52.356;5.310;2022-11-15T17:31:10;6.78;;;1.77;;
75932;SDS011;64803;52.356;5.310;2022-11-15T17:33:38;6.72;;;1.45;;
75932;SDS011;64803;52.356;5.310;2022-11-15T17:36:09;5.90;;;1.30;;
75932;SDS011;64803;52.356;5.310;2022-11-15T17:38:37;4.78;;;1.33;;
75932;SDS011;64803;52.356;5.310;2022-11-15T17:41:08;11.10;;;1.98;;
75932;SDS011;64803;52.356;5.310;2022-11-15T17:43:37;6.50;;;1.75;;
75932;SDS011;64803;52.356;5.310;2022-11-15T17:46:04;6.13;;;1.42;;
75932;SDS011;64803;52.356;5.310;2022-11-15T17:48:31;6.28;;;2.28;;
75932;SDS011;64803;52.356;5.310;2022-11-15T17:50:58;7.22;;;1.60;;
75932;SDS011;64803;52.356;5.310;2022-11-15T17:53:26;4.13;;;1.40;;
75932;SDS011;64803;52.356;5.310;2022-11-15T17:55:59;5.43;;;1.70;;